KAPC/APC METAR and TAF weather

Enter ICAO airport designator
Station Type Date Time Source
KAPC METAR 2021/09/23 17:54 UTC NOAA

KAPC 231754Z VRB04KT 10SM SCT003 18/13 A2996 RMK AO2 SLP138 T01780133 10178 20072 58001


Station Type Date Time Source
KAPC Decoded METAR 2021/09/23 17:54 UTC NOAA

NAPA COUNTY AIRPORT, CA, United States (KAPC) 38-12N 122-17W 13M
Sep 23, 2021 - 01:54 PM EDT / 2021.09.23 1754 UTC
Wind: Variable at 5 MPH (4 KT):0
Visibility: 10 mile(s):0
Sky conditions: partly cloudy
Temperature: 64.0 F (17.8 C)
Dew Point: 55.9 F (13.3 C)
Relative Humidity: 74%
Pressure (altimeter): 29.96 in. Hg (1014 hPa)
Pressure tendency: 0.00 inches (0.1 hPa) lower than three hours ago
ob: KAPC 231754Z VRB04KT 10SM SCT003 18/13 A2996 RMK AO2 SLP138 T01780133 10178 20072 58001
cycle: 18

Station Type Date Time Source
KAPC TAF 2021/09/23 18:33 UTC NOAA

TAF KAPC 231731Z 2318/2418 VRB05KT P6SM SCT002
FM231900 20006KT P6SM SKC
FM232200 26010KT P6SM SKC
FM240300 20005KT P6SM SKC
FM241000 VRB04KT P6SM BKN004

Example: see airport list